Details From LEXJ - Santander
To LEPP - Pamplona
Flight Number -
Tags generated
Created
Modified
Stats Distance 103 nm / 191 km
Max Altitude 9,300 ft / 2,835 m
Waypoints 3
Social Downloads 0
Likes 0
Share VATSIM

Download

Looking for another format? Having issues loading an existing format? Contact us
Advertisement - Login to hide

Notes

Basic altitude profile: - Ascent Rate: 2500ft/min - Ascent Speed: 250kts - Cruise Altitude: 35000ft - Cruise Speed: 420kts - Descent Rate: 1500ft/min - Descent Speed: 250kts Options: - Use NATs: yes - Use PACOTS: yes - Use low airways: yes - Use high airways: yes

Route

LEXJ URQUI LEPP

ID Type Via Altitude Latitude Longitude Leg Dist Tot Dist Heading (true) Name
O LEXJ APT - 0 ft / 0 m 43.42719˚ -3.82047˚ - 0 nm - Santander
URQUI FIX - 9,300 ft / 2,835 m 43.07485˚ -2.66508˚ 54 nm 54 nm 112° / 113° -
O LEPP APT - 0 ft / 0 m 42.77083˚ -1.64688˚ 48 nm 103 nm 112° / 113° Pamplona

Altitude Profile

Advertisement - Login to hide

LEXJ

Details ICAO LEXJ (SDR)
Name Santander
Region Spain
Timezone Europe/Madrid (UTC+1.0)
Stats Elevation 16 ft / 5 m (AMSL)
Location 43.427188° -3.820470°
Runways 1
Magnetic Variation 0.912° W

METAR

Not found

TAF

TAF LEXJ 160200Z 1603/1703 28009KT 9999 SCT030 TX10/1614Z TN06/1703Z TEMPO 1603/1703 3000 RA PROB40 TEMPO 1603/1615 31015G25KT TEMPO 1603/1606 SHRA SCT030TCU

Decode

Departure Runways

ID Width Length Bearing (true) Bearing (mag) Surface Threshold Offset Overrun Length
11 148 ft / 45 m 7,597 ft / 2,316 m 110.20° 111.11° Asphalt 0 ft / 0 m 98 ft / 30 m
29 148 ft / 45 m 7,597 ft / 2,316 m 290.22° 291.13° Asphalt 0 ft / 0 m 0 ft / 0 m

LEPP

Details ICAO LEPP (PNA)
Name Pamplona
Region Spain
Timezone Europe/Madrid (UTC+1.0)
Stats Elevation 1,503 ft / 458 m (AMSL)
Location 42.770831° -1.646876°
Runways 2
Magnetic Variation 0.227° W

METAR

LEPP 160400Z AUTO 17003KT 130V200 9999 -UP FEW020/// SCT026/// 03/03 Q1016

Decode

TAF

TAF LEPP 160200Z 1603/1703 32008KT 9999 FEW015 BKN030 TX05/1614Z TN02/1703Z TEMPO 1603/1611 RA BKN010 PROB40 TEMPO 1700/1703 0600 BCFG

Decode

Destination Runways

ID Width Length Bearing (true) Bearing (mag) Surface Threshold Offset Overrun Length
15 148 ft / 45 m 7,192 ft / 2,192 m 151.64° 151.87° Asphalt 0 ft / 0 m 0 ft / 0 m
16 148 ft / 45 m 7,245 ft / 2,208 m 151.86° 152.09° Asphalt 0 ft / 0 m 0 ft / 0 m
33 148 ft / 45 m 7,192 ft / 2,192 m 331.65° 331.88° Asphalt 984 ft / 300 m 656 ft / 200 m
34 148 ft / 45 m 7,245 ft / 2,208 m 331.86° 332.09° Asphalt 984 ft / 300 m 0 ft / 0 m

Approach Navaids

Runway Type Ident Frequency Range Bearing (true) Bearing (mag) Slope Elevation
16 Localiser IPN 109.70 MHz 18 nm / 33 km 151.86° 152.09° - 1,503 ft / 458 m (AMSL)
16 Glidescope IPN 109.70 MHz 10 nm / 19 km 151.86° 152.09° 3.40° 1,503 ft / 458 m (AMSL)
16 DME IPN 109.70 MHz 18 nm / 33 km - - - 1,470 ft / 448 m (AMSL)

Popular Alternatives